sensor_id;sensor_type;location;lat;lon;timestamp;pressure;altitude;pressure_sealevel;temperature;humidity
69593;BME280;56796;50.122;14.468;2023-04-25T00:16:01;971.72;;;8.43;79.9
69593;BME280;56796;50.122;14.468;2023-04-25T00:35:28;971.76;;;8.28;80.03
69593;BME280;56796;50.122;14.468;2023-04-25T00:54:52;971.65;;;8.14;80.87
69593;BME280;56796;50.122;14.468;2023-04-25T01:14:16;971.55;;;7.88;82.1
69593;BME280;56796;50.122;14.468;2023-04-25T01:33:41;971.53;;;7.62;83.09
69593;BME280;56796;50.122;14.468;2023-04-25T01:53:08;971.53;;;7.49;84.15
69593;BME280;56796;50.122;14.468;2023-04-25T02:12:33;971.59;;;7.27;85.25
69593;BME280;56796;50.122;14.468;2023-04-25T02:31:59;971.4;;;7.16;86.06
69593;BME280;56796;50.122;14.468;2023-04-25T02:51:24;971.35;;;7.05;87.08
69593;BME280;56796;50.122;14.468;2023-04-25T03:10:50;971.29;;;7.09;87.26
69593;BME280;56796;50.122;14.468;2023-04-25T03:30:18;971.11;;;6.86;88.49
69593;BME280;56796;50.122;14.468;2023-04-25T03:49:36;971.18;;;6.94;89.09
69593;BME280;56796;50.122;14.468;2023-04-25T04:09:03;971.17;;;7.14;88.44
69593;BME280;56796;50.122;14.468;2023-04-25T04:28:33;971.13;;;7.29;88.03
69593;BME280;56796;50.122;14.468;2023-04-25T04:47:52;971.17;;;7.86;86.78
69593;BME280;56796;50.122;14.468;2023-04-25T05:07:20;971.26;;;8.1;85.84
69593;BME280;56796;50.122;14.468;2023-04-25T05:26:47;971.14;;;8.5;84.73
69593;BME280;56796;50.122;14.468;2023-04-25T05:46:14;971.28;;;8.37;84.37
69593;BME280;56796;50.122;14.468;2023-04-25T06:05:41;971.16;;;8.74;83.4
69593;BME280;56796;50.122;14.468;2023-04-25T06:25:10;971.1;;;9.68;80.39
69593;BME280;56796;50.122;14.468;2023-04-25T06:44:38;970.99;;;10.06;79.88
69593;BME280;56796;50.122;14.468;2023-04-25T07:04:06;970.96;;;10.05;79.15
69593;BME280;56796;50.122;14.468;2023-04-25T07:23:32;971.03;;;9.81;79.98
69593;BME280;56796;50.122;14.468;2023-04-25T07:42:58;971.08;;;9.75;80.69
69593;BME280;56796;50.122;14.468;2023-04-25T08:02:27;970.94;;;11.68;75.11
69593;BME280;56796;50.122;14.468;2023-04-25T08:22:02;970.73;;;14.26;67.73
69593;BME280;56796;50.122;14.468;2023-04-25T08:41:36;970.81;;;14.44;64.1
69593;BME280;56796;50.122;14.468;2023-04-25T09:01:00;970.93;;;12.62;65.61
69593;BME280;56796;50.122;14.468;2023-04-25T09:20:22;971.08;;;12.08;68.62
69593;BME280;56796;50.122;14.468;2023-04-25T09:39:47;971.31;;;10.57;74.53
69593;BME280;56796;50.122;14.468;2023-04-25T09:59:10;971.67;;;9.01;77.75
69593;BME280;56796;50.122;14.468;2023-04-25T10:18:29;971.71;;;7.98;91.93
69593;BME280;56796;50.122;14.468;2023-04-25T11:16:43;972.03;;;9.35;84.6
69593;BME280;56796;50.122;14.468;2023-04-25T11:36:16;972.1;;;10.93;80.45
69593;BME280;56796;50.122;14.468;2023-04-25T11:55:51;972.06;;;12.51;69.73
69593;BME280;56796;50.122;14.468;2023-04-25T12:15:18;972.05;;;11.74;67.92
69593;BME280;56796;50.122;14.468;2023-04-25T12:34:49;972.01;;;12.97;64.36
69593;BME280;56796;50.122;14.468;2023-04-25T12:54:15;972.15;;;12.28;59.92
69593;BME280;56796;50.122;14.468;2023-04-25T13:13:38;972.22;;;12.2;59.9
69593;BME280;56796;50.122;14.468;2023-04-25T13:33:07;972.48;;;11.79;60.97
69593;BME280;56796;50.122;14.468;2023-04-25T13:52:23;972.61;;;11.77;61.05
69593;BME280;56796;50.122;14.468;2023-04-25T14:11:52;972.76;;;12.41;58.3
69593;BME280;56796;50.122;14.468;2023-04-25T14:31:19;972.83;;;12.45;58.76
69593;BME280;56796;50.122;14.468;2023-04-25T14:50:44;973.09;;;11.31;63.58
69593;BME280;56796;50.122;14.468;2023-04-25T15:10:10;973.37;;;10.94;63.34
69593;BME280;56796;50.122;14.468;2023-04-25T15:29:34;973.45;;;10.8;65.72
69593;BME280;56796;50.122;14.468;2023-04-25T15:49:00;973.6;;;10.52;67.49
69593;BME280;56796;50.122;14.468;2023-04-25T16:08:16;973.85;;;9.84;69.16
69593;BME280;56796;50.122;14.468;2023-04-25T16:27:43;974.05;;;9.17;74.89
69593;BME280;56796;50.122;14.468;2023-04-25T16:47:00;974.08;;;9.17;73.81
69593;BME280;56796;50.122;14.468;2023-04-25T17:06:27;974.24;;;9.51;73.25
69593;BME280;56796;50.122;14.468;2023-04-25T17:25:53;974.56;;;9;73.72
69593;BME280;56796;50.122;14.468;2023-04-25T17:45:19;974.85;;;8.7;73.75
69593;BME280;56796;50.122;14.468;2023-04-25T18:04:43;975.2;;;8.52;74.31
69593;BME280;56796;50.122;14.468;2023-04-25T18:24:08;975.39;;;7.91;78.3
69593;BME280;56796;50.122;14.468;2023-04-25T18:43:32;975.84;;;7.31;77.37
69593;BME280;56796;50.122;14.468;2023-04-25T19:02:56;976.05;;;7.21;74.41
69593;BME280;56796;50.122;14.468;2023-04-25T19:22:20;976.27;;;7.11;74.13
69593;BME280;56796;50.122;14.468;2023-04-25T19:41:45;976.33;;;6.86;75.52
69593;BME280;56796;50.122;14.468;2023-04-25T20:01:10;976.5;;;6.71;76.4
69593;BME280;56796;50.122;14.468;2023-04-25T20:20:36;976.59;;;6.52;76.35
69593;BME280;56796;50.122;14.468;2023-04-25T20:40:02;976.68;;;6.29;77.48
69593;BME280;56796;50.122;14.468;2023-04-25T20:59:26;976.79;;;6.12;77.3
69593;BME280;56796;50.122;14.468;2023-04-25T21:18:51;976.79;;;5.91;77
69593;BME280;56796;50.122;14.468;2023-04-25T21:38:16;976.91;;;5.63;77.02
69593;BME280;56796;50.122;14.468;2023-04-25T21:57:42;976.94;;;5.47;76.79
69593;BME280;56796;50.122;14.468;2023-04-25T22:17:06;977.12;;;5.36;77.7
69593;BME280;56796;50.122;14.468;2023-04-25T22:36:33;977.3;;;5.59;74.58
69593;BME280;56796;50.122;14.468;2023-04-25T22:55:59;977.45;;;5.54;72.99
69593;BME280;56796;50.122;14.468;2023-04-25T23:15:25;977.43;;;5.33;72.72
69593;BME280;56796;50.122;14.468;2023-04-25T23:34:50;977.5;;;5.12;72.87
69593;BME280;56796;50.122;14.468;2023-04-25T23:54:18;977.57;;;4.94;72.62
